Darstellungsparameter: Aktuell verwendete Einstellungen:
Skalierung der Graphiken ... ?
xyx+y,   Skalierungsfaktor:      Skalierung: Modus: x, Faktor: 1
Darstellungszeitraum ... ?
Vom - - bis: - -   Zeitraum: 22.12.2010 - 26.12.2010
Min/Max/Avg-Anzeige ... ?
Zeige MMA aktuell
Zeige MMA Monat
Zeige MMA alles
Zeige --A aktuell
Zeige --A Monat
Zeige --A alles
Keine MMA-Anzeige
MMA:
Average (ber die Originaldaten)
MMA-Basis: 22.12.2010 - 26.12.2010
Quicknavigation für Darstellung... ?
Tage:      1T, 2T, 3T, 5T -1T -2T -3T -5T +1T +2T +3T +5T
Wochen: 1W, 2W, 3W -1W -2W -3W +1W +2W +3W
Monate: 1M, 3M, 6M -1M -3M -6M +1M +3M +6M
Jahre:    1J, 3J, 5J, 10J -1J -3J -5J -10J +1J +3J +5J +10J
Nutze für die Darstellung ... ?
Originaldaten oder Mittelwerte auf ...
Stundenbasis Tagesbasis Wochenbasis
Monatsbasis Jahresbasis      Datenbasis: Original-Daten
Darstellen als:
Statistik (Auto) Statistik J:M      Darstellung:
Zur Graphik,    zurück zur Übersicht aller Sensoren.
 
Tabellarische Datenbersicht: ?
 
Sensor: Nr:Datum:Temp:Abs-Feuchte:Windchill:Wind:
Aussen-T/F 1 22-12-2010 00:00:04 0.1 C 4.44 g/m*3 0.1 C 0 km/h
2 22-12-2010 00:12:04 0.1 C 4.49 g/m*3 0.1 C 0 km/h
3 22-12-2010 00:24:04 0.1 C 4.49 g/m*3 0.1 C 0 km/h
4 22-12-2010 00:36:04 0.1 C 4.49 g/m*3 0.1 C 0 km/h
5 22-12-2010 00:48:04 0.1 C 4.49 g/m*3 0.1 C 0 km/h
6 22-12-2010 01:00:04 0.1 C 4.49 g/m*3 0.1 C 0 km/h
7 22-12-2010 01:12:04 0.1 C 4.49 g/m*3 0.1 C 0 km/h
8 22-12-2010 01:24:04 0.2 C 4.52 g/m*3 0.2 C 0 km/h
9 22-12-2010 01:36:04 0.2 C 4.52 g/m*3 0.2 C 0 km/h
10 22-12-2010 01:48:04 0.2 C 4.52 g/m*3 0.2 C 0 km/h
11 22-12-2010 02:00:04 0.2 C 4.52 g/m*3 0.2 C 0 km/h
12 22-12-2010 02:12:05 0.2 C 4.52 g/m*3 0.2 C 0 km/h
13 22-12-2010 02:24:05 0.2 C 4.52 g/m*3 0.2 C 0 km/h
14 22-12-2010 02:36:05 0.2 C 4.52 g/m*3 0.2 C 0 km/h
15 22-12-2010 02:48:05 0.2 C 4.52 g/m*3 0.2 C 0 km/h
16 22-12-2010 03:00:05 0.2 C 4.52 g/m*3 0.2 C 0 km/h
17 22-12-2010 03:12:05 0.2 C 4.52 g/m*3 0.2 C 0 km/h
18 22-12-2010 03:24:05 0.1 C 4.49 g/m*3 0.1 C 0 km/h
19 22-12-2010 03:36:05 0.1 C 4.49 g/m*3 0.1 C 0 km/h
20 22-12-2010 03:48:05 0.2 C 4.52 g/m*3 0.2 C 0 km/h
21 22-12-2010 04:00:05 0.2 C 4.52 g/m*3 0.2 C 0 km/h
22 22-12-2010 04:12:05 0.3 C 4.55 g/m*3 0.3 C 0 km/h
23 22-12-2010 04:24:05 0.3 C 4.55 g/m*3 0.3 C 0 km/h
24 22-12-2010 04:36:05 0.3 C 4.55 g/m*3 0.3 C 0 km/h
25 22-12-2010 04:48:05 0.3 C 4.55 g/m*3 0.3 C 0 km/h
Sensor: Nr:Datum:Temp:Abs-Feuchte:Windchill:Wind:
Aussen-T/F 26 22-12-2010 05:00:05 0.3 C 4.55 g/m*3 0.3 C 0 km/h
27 22-12-2010 05:12:05 0.3 C 4.55 g/m*3 0.3 C 0 km/h
28 22-12-2010 05:24:05 0.3 C 4.55 g/m*3 0.3 C 0 km/h
29 22-12-2010 05:36:05 0.3 C 4.55 g/m*3 0.3 C 0 km/h
30 22-12-2010 05:48:05 0.3 C 4.55 g/m*3 0.3 C 0 km/h
31 22-12-2010 06:00:05 0.3 C 4.55 g/m*3 0.3 C 0 km/h
32 22-12-2010 06:12:06 0.3 C 4.55 g/m*3 0.3 C 0 km/h
33 22-12-2010 06:24:06 0.3 C 4.55 g/m*3 0.3 C 0 km/h
34 22-12-2010 06:36:06 0.3 C 4.55 g/m*3 0.3 C 0 km/h
35 22-12-2010 06:48:06 0.3 C 4.55 g/m*3 0.3 C 0 km/h
36 22-12-2010 07:00:06 0.3 C 4.55 g/m*3 0.3 C 0 km/h
37 22-12-2010 07:12:06 0.3 C 4.55 g/m*3 0.3 C 0 km/h
38 22-12-2010 07:24:06 0.3 C 4.55 g/m*3 0.3 C 0 km/h
39 22-12-2010 07:36:03 0.3 C 4.6 g/m*3 0.3 C 0 km/h
40 22-12-2010 07:48:02 0.3 C 4.6 g/m*3 0.3 C 0 km/h
41 22-12-2010 08:00:02 0.3 C 4.6 g/m*3 0.3 C 0 km/h
42 22-12-2010 08:12:02 0.3 C 4.6 g/m*3 0.3 C 0 km/h
43 22-12-2010 08:24:01 0.3 C 4.6 g/m*3 0.3 C 0 km/h
44 22-12-2010 08:36:02 0.4 C 4.63 g/m*3 0.4 C 0 km/h
45 22-12-2010 08:48:02 0.4 C 4.63 g/m*3 0.4 C 0 km/h
46 22-12-2010 09:00:02 0.4 C 4.63 g/m*3 0.4 C 0 km/h
47 22-12-2010 09:12:02 0.6 C 4.7 g/m*3 0.6 C 0 km/h
48 22-12-2010 09:24:01 0.7 C 4.73 g/m*3 0.7 C 0 km/h
49 22-12-2010 09:36:02 0.9 C 4.79 g/m*3 0.9 C 0 km/h
50 22-12-2010 09:48:01 0.9 C 4.79 g/m*3 0.9 C 0 km/h
Sensor: Nr:Datum:Temp:Abs-Feuchte:Windchill:Wind:
Aussen-T/F 51 22-12-2010 10:00:01 1.1 C 4.81 g/m*3 1.1 C 0 km/h
52 22-12-2010 10:12:02 1.2 C 4.84 g/m*3 1.2 C 0 km/h
53 22-12-2010 10:24:02 1.2 C 4.84 g/m*3 1.2 C 0 km/h
54 22-12-2010 10:36:02 1.7 C 5.01 g/m*3 1.7 C 0 km/h
55 22-12-2010 10:48:02 1.7 C 5.01 g/m*3 1.7 C 0 km/h
56 22-12-2010 11:00:02 2 C 5 g/m*3 2 C 0 km/h
57 22-12-2010 11:12:02 1.9 C 4.97 g/m*3 1.9 C 0 km/h
58 22-12-2010 11:24:02 2.3 C 5.05 g/m*3 2.3 C 0 km/h
59 22-12-2010 11:36:01 2.7 C 5.13 g/m*3 2.7 C 0 km/h
60 22-12-2010 11:48:02 2.6 C 4.98 g/m*3 2.6 C 0 km/h
61 22-12-2010 12:00:02 2.7 C 4.95 g/m*3 2.7 C 0 km/h
62 22-12-2010 12:12:01 2.7 C 4.89 g/m*3 2.7 C 0 km/h
63 22-12-2010 12:24:01 2.9 C 4.9 g/m*3 2.9 C 0 km/h
64 22-12-2010 12:36:02 2.9 C 4.9 g/m*3 2.9 C 0 km/h
65 22-12-2010 12:48:02 2.6 C 4.8 g/m*3 2.6 C 0 km/h
66 22-12-2010 13:00:02 2.6 C 4.8 g/m*3 2.6 C 0 km/h
67 22-12-2010 13:12:02 2.3 C 4.71 g/m*3 2.3 C 0 km/h
68 22-12-2010 13:24:02 2.6 C 4.8 g/m*3 2.6 C 0 km/h
69 22-12-2010 13:36:02 2.3 C 4.71 g/m*3 2.3 C 0 km/h
70 22-12-2010 13:48:02 2.1 C 4.64 g/m*3 2.1 C 0 km/h
71 22-12-2010 14:00:02 2.1 C 4.7 g/m*3 2.1 C 0 km/h
72 22-12-2010 14:12:02 2.3 C 4.76 g/m*3 2.3 C 0 km/h
73 22-12-2010 14:24:02 2.6 C 4.86 g/m*3 2.6 C 0 km/h
74 22-12-2010 14:36:02 2.6 C 4.8 g/m*3 2.6 C 0 km/h
75 22-12-2010 14:48:02 2.4 C 4.68 g/m*3 2.4 C 0 km/h
Sensor: Nr:Datum:Temp:Abs-Feuchte:Windchill:Wind:
Aussen-T/F 76 22-12-2010 15:00:02 2 C 4.61 g/m*3 2 C 0 km/h
77 22-12-2010 15:12:02 1.7 C 4.57 g/m*3 1.7 C 0 km/h
78 22-12-2010 15:24:02 1.6 C 4.6 g/m*3 1.6 C 0 km/h
79 22-12-2010 15:36:02 1.6 C 4.6 g/m*3 1.6 C 0 km/h
80 22-12-2010 15:48:02 1.4 C 4.59 g/m*3 1.4 C 0 km/h
81 22-12-2010 16:00:02 1.4 C 4.64 g/m*3 1.4 C 0 km/h
82 22-12-2010 16:12:02 1.2 C 4.58 g/m*3 1.2 C 0 km/h
83 22-12-2010 16:24:02 1.2 C 4.63 g/m*3 1.2 C 0 km/h
84 22-12-2010 16:36:02 1 C 4.57 g/m*3 1 C 0 km/h
85 22-12-2010 16:48:02 1 C 4.57 g/m*3 1 C 0 km/h
86 22-12-2010 17:00:02 0.9 C 4.59 g/m*3 0.9 C 0 km/h
87 22-12-2010 17:12:02 0.8 C 4.56 g/m*3 0.8 C 0 km/h
88 22-12-2010 17:24:02 0.7 C 4.58 g/m*3 0.7 C 0 km/h
89 22-12-2010 17:36:01 0.8 C 4.61 g/m*3 0.8 C 0 km/h
90 22-12-2010 17:48:02 0.8 C 4.66 g/m*3 0.8 C 0 km/h
91 22-12-2010 18:00:02 0.7 C 4.63 g/m*3 0.7 C 0 km/h
92 22-12-2010 18:12:01 0.7 C 4.63 g/m*3 0.7 C 0 km/h
93 22-12-2010 18:24:01 0.6 C 4.6 g/m*3 0.6 C 0 km/h
94 22-12-2010 18:36:02 0.8 C 4.66 g/m*3 0.8 C 0 km/h
95 22-12-2010 18:48:02 0.7 C 4.63 g/m*3 0.7 C 0 km/h
96 22-12-2010 19:00:02 0.7 C 4.68 g/m*3 0.7 C 0 km/h
97 22-12-2010 19:12:02 0.8 C 4.71 g/m*3 0.8 C 0 km/h
98 22-12-2010 19:24:02 0.8 C 4.71 g/m*3 0.8 C 0 km/h
99 22-12-2010 19:36:02 0.8 C 4.71 g/m*3 0.8 C 0 km/h
100 22-12-2010 19:48:02 0.8 C 4.71 g/m*3 0.8 C 0 km/h
Sensor: Nr:Datum:Temp:Abs-Feuchte:Windchill:Wind:
Aussen-T/F 101 22-12-2010 20:00:02 0.7 C 4.68 g/m*3 0.7 C 0 km/h
102 22-12-2010 20:12:03 0.8 C 4.71 g/m*3 0.8 C 0 km/h
103 22-12-2010 20:24:02 0.8 C 4.71 g/m*3 0.8 C 0 km/h
104 22-12-2010 20:36:02 0.8 C 4.71 g/m*3 0.8 C 0 km/h
105 22-12-2010 20:48:01 0.8 C 4.71 g/m*3 0.8 C 0 km/h
106 22-12-2010 21:00:01 0.8 C 4.71 g/m*3 0.8 C 0 km/h
107 22-12-2010 21:12:01 0.8 C 4.71 g/m*3 0.8 C 0 km/h
108 22-12-2010 21:24:01 0.8 C 4.71 g/m*3 0.8 C 0 km/h
109 22-12-2010 21:36:01 0.8 C 4.71 g/m*3 0.8 C 0 km/h
110 22-12-2010 21:48:01 0.8 C 4.71 g/m*3 0.8 C 0 km/h
111 22-12-2010 22:00:01 0.7 C 4.68 g/m*3 0.7 C 0 km/h
112 22-12-2010 22:13:03 0.7 C 4.68 g/m*3 0.7 C 0 km/h
113 22-12-2010 22:25:03 0.7 C 4.68 g/m*3 0.7 C 0 km/h
114 22-12-2010 22:37:03 0.7 C 4.68 g/m*3 0.7 C 0 km/h
115 22-12-2010 22:49:03 0.7 C 4.68 g/m*3 0.7 C 0 km/h
116 22-12-2010 23:01:03 0.7 C 4.68 g/m*3 0.7 C 0 km/h
117 22-12-2010 23:13:03 0.7 C 4.68 g/m*3 0.7 C 0 km/h
118 22-12-2010 23:25:03 0.7 C 4.68 g/m*3 0.7 C 0 km/h
119 22-12-2010 23:37:03 0.7 C 4.68 g/m*3 0.7 C 0 km/h
120 22-12-2010 23:49:03 0.7 C 4.68 g/m*3 0.7 C 0 km/h
121 23-12-2010 00:01:03 0.7 C 4.68 g/m*3 0.7 C 0 km/h
122 23-12-2010 00:13:03 0.8 C 4.76 g/m*3 0.8 C 0 km/h
123 23-12-2010 00:25:03 0.8 C 4.76 g/m*3 0.8 C 0 km/h
124 23-12-2010 00:37:03 0.8 C 4.76 g/m*3 0.8 C 0 km/h
125 23-12-2010 00:49:03 0.7 C 4.73 g/m*3 0.7 C 0 km/h
Sensor: Nr:Datum:Temp:Abs-Feuchte:Windchill:Wind:
Aussen-T/F 126 23-12-2010 01:01:04 0.7 C 4.73 g/m*3 0.7 C 0 km/h
127 23-12-2010 01:13:04 0.7 C 4.73 g/m*3 0.7 C 0 km/h
128 23-12-2010 01:25:04 0.7 C 4.73 g/m*3 0.7 C 0 km/h
129 23-12-2010 01:37:04 0.7 C 4.73 g/m*3 0.7 C 0 km/h
130 23-12-2010 01:49:04 0.7 C 4.73 g/m*3 0.7 C 0 km/h
131 23-12-2010 02:01:04 0.7 C 4.73 g/m*3 0.7 C 0 km/h
132 23-12-2010 02:13:04 0.7 C 4.73 g/m*3 0.7 C 0 km/h
133 23-12-2010 02:25:04 0.7 C 4.73 g/m*3 0.7 C 0 km/h
134 23-12-2010 02:37:04 0.7 C 4.73 g/m*3 0.7 C 0 km/h
135 23-12-2010 02:49:04 0.7 C 4.73 g/m*3 0.7 C 0 km/h
136 23-12-2010 03:01:04 0.7 C 4.73 g/m*3 0.7 C 0 km/h
137 23-12-2010 03:13:04 0.7 C 4.73 g/m*3 0.7 C 0 km/h
138 23-12-2010 03:25:04 0.7 C 4.73 g/m*3 0.7 C 0 km/h
139 23-12-2010 03:37:04 0.7 C 4.73 g/m*3 0.7 C 0 km/h
140 23-12-2010 03:49:04 0.7 C 4.73 g/m*3 0.7 C 0 km/h
141 23-12-2010 04:01:04 0.7 C 4.73 g/m*3 0.7 C 0 km/h
142 23-12-2010 04:13:04 0.7 C 4.73 g/m*3 0.7 C 0 km/h
143 23-12-2010 04:25:04 0.7 C 4.73 g/m*3 0.7 C 0 km/h
144 23-12-2010 04:37:04 0.6 C 4.7 g/m*3 0.6 C 0 km/h
145 23-12-2010 04:49:04 0.6 C 4.7 g/m*3 0.6 C 0 km/h
146 23-12-2010 05:01:04 0.6 C 4.7 g/m*3 0.6 C 0 km/h
147 23-12-2010 05:13:05 0.6 C 4.7 g/m*3 0.6 C 0 km/h
148 23-12-2010 05:25:05 0.4 C 4.63 g/m*3 0.4 C 0 km/h
149 23-12-2010 05:37:05 0.4 C 4.63 g/m*3 0.4 C 0 km/h
150 23-12-2010 05:49:05 0.4 C 4.63 g/m*3 0.4 C 0 km/h
Sensor: Nr:Datum:Temp:Abs-Feuchte:Windchill:Wind:
Aussen-T/F 151 23-12-2010 06:01:05 0.4 C 4.63 g/m*3 0.4 C 0 km/h
152 23-12-2010 06:13:05 0.4 C 4.63 g/m*3 0.4 C 0 km/h
153 23-12-2010 06:25:05 0.4 C 4.63 g/m*3 0.4 C 0 km/h
154 23-12-2010 06:37:05 0.4 C 4.63 g/m*3 0.4 C 0 km/h
155 23-12-2010 06:49:05 0.1 C 4.54 g/m*3 0.1 C 0 km/h
156 23-12-2010 07:01:05 0.1 C 4.54 g/m*3 0.1 C 0 km/h
157 23-12-2010 07:13:05 0.1 C 4.54 g/m*3 0.1 C 0 km/h
158 23-12-2010 07:25:03 0 C 4.51 g/m*3 0 C 0 km/h
159 23-12-2010 07:37:03 -0.1 C 4.47 g/m*3 -0.1 C 0 km/h
160 23-12-2010 07:49:02 -0.1 C 4.47 g/m*3 -0.1 C 0 km/h
161 23-12-2010 08:01:02 -0.2 C 4.44 g/m*3 -0.2 C 0 km/h
162 23-12-2010 08:13:03 -0.2 C 4.44 g/m*3 -0.2 C 0 km/h
163 23-12-2010 08:25:02 -0.3 C 4.41 g/m*3 -0.3 C 0 km/h
164 23-12-2010 08:37:02 -0.4 C 4.34 g/m*3 -0.4 C 0 km/h
165 23-12-2010 08:49:01 -0.5 C 4.31 g/m*3 -0.5 C 0 km/h
166 23-12-2010 09:01:01 -0.5 C 4.31 g/m*3 -0.5 C 0 km/h
167 23-12-2010 09:13:01 -0.5 C 4.31 g/m*3 -0.5 C 0 km/h
168 23-12-2010 09:25:02 -0.6 C 4.28 g/m*3 -0.6 C 0 km/h
169 23-12-2010 09:37:01 -0.5 C 4.31 g/m*3 -0.5 C 0 km/h
170 23-12-2010 09:49:03 -0.4 C 4.34 g/m*3 -0.4 C 0 km/h
171 23-12-2010 10:01:02 -0.4 C 4.34 g/m*3 -0.4 C 0 km/h
172 23-12-2010 10:13:02 -0.4 C 4.34 g/m*3 -0.4 C 0 km/h
173 23-12-2010 10:25:02 -0.5 C 4.31 g/m*3 -0.5 C 0 km/h
174 23-12-2010 10:37:02 -0.7 C 4.2 g/m*3 -0.7 C 0 km/h
175 23-12-2010 10:49:02 -0.7 C 4.15 g/m*3 -0.7 C 0 km/h
Sensor: Nr:Datum:Temp:Abs-Feuchte:Windchill:Wind:
Aussen-T/F 176 23-12-2010 11:01:01 -0.8 C 4.13 g/m*3 -0.8 C 0 km/h
177 23-12-2010 11:13:01 -0.6 C 4.18 g/m*3 -0.6 C 0 km/h
178 23-12-2010 11:25:02 -0.5 C 4.21 g/m*3 -0.5 C 0 km/h
179 23-12-2010 11:37:02 -0.5 C 4.21 g/m*3 -0.5 C 0 km/h
180 23-12-2010 11:49:01 -0.5 C 4.21 g/m*3 -0.5 C 0 km/h
181 23-12-2010 12:01:01 -0.5 C 4.21 g/m*3 -0.5 C 0 km/h
182 23-12-2010 12:13:01 -0.8 C 4.03 g/m*3 -0.8 C 0 km/h
183 23-12-2010 12:25:01 -0.7 C 4.02 g/m*3 -0.7 C 0 km/h
184 23-12-2010 12:37:02 -0.7 C 4.02 g/m*3 -0.7 C 0 km/h
185 23-12-2010 12:49:02 -0.7 C 4.02 g/m*3 -0.7 C 0 km/h
186 23-12-2010 13:01:02 -0.7 C 4.02 g/m*3 -0.7 C 0 km/h
187 23-12-2010 13:13:02 -0.6 C 4.04 g/m*3 -0.6 C 0 km/h
188 23-12-2010 13:25:01 -0.6 C 4 g/m*3 -0.6 C 0 km/h
189 23-12-2010 13:37:02 -0.7 C 3.97 g/m*3 -0.7 C 0 km/h
190 23-12-2010 13:49:02 -0.7 C 3.97 g/m*3 -0.7 C 0 km/h
191 23-12-2010 14:01:02 -0.5 C 4.03 g/m*3 -0.5 C 0 km/h
192 23-12-2010 14:13:03 -0.6 C 4 g/m*3 -0.6 C 0 km/h
193 23-12-2010 14:25:01 -0.6 C 4 g/m*3 -0.6 C 0 km/h
194 23-12-2010 14:37:02 -0.6 C 4 g/m*3 -0.6 C 0 km/h
195 23-12-2010 14:49:01 -0.8 C 3.94 g/m*3 -0.8 C 0 km/h
196 23-12-2010 15:01:02 -0.8 C 3.94 g/m*3 -0.8 C 0 km/h
197 23-12-2010 15:13:02 -0.8 C 3.94 g/m*3 -0.8 C 0 km/h
198 23-12-2010 15:25:02 -0.9 C 3.91 g/m*3 -0.9 C 0 km/h
199 23-12-2010 15:37:01 -0.9 C 3.91 g/m*3 -0.9 C 0 km/h
200 23-12-2010 15:49:02 -0.9 C 3.96 g/m*3 -0.9 C 0 km/h
Sensor: Nr:Datum:Temp:Abs-Feuchte:Windchill:Wind:
Aussen-T/F 201 23-12-2010 16:01:01 -0.9 C 3.96 g/m*3 -0.9 C 0 km/h
202 23-12-2010 16:13:01 -0.8 C 3.99 g/m*3 -0.8 C 0 km/h
203 23-12-2010 16:25:02 -0.9 C 3.96 g/m*3 -0.9 C 0 km/h
204 23-12-2010 16:37:01 -0.9 C 3.96 g/m*3 -0.9 C 0 km/h
205 23-12-2010 16:49:02 -1 C 3.93 g/m*3 -1 C 0 km/h
206 23-12-2010 17:01:02 -1 C 3.93 g/m*3 -1 C 0 km/h
207 23-12-2010 17:13:02 -1 C 3.93 g/m*3 -1 C 0 km/h
208 23-12-2010 17:25:02 -1 C 3.93 g/m*3 -1 C 0 km/h
209 23-12-2010 17:37:03 -1 C 3.93 g/m*3 -1 C 0 km/h
210 23-12-2010 17:49:02 -1.1 C 3.91 g/m*3 -1.1 C 0 km/h
211 23-12-2010 18:01:02 -1.1 C 3.91 g/m*3 -1.1 C 0 km/h
212 23-12-2010 18:13:02 -1.1 C 3.91 g/m*3 -1.1 C 0 km/h
213 23-12-2010 18:25:01 -1.1 C 3.91 g/m*3 -1.1 C 0 km/h
214 23-12-2010 18:37:02 -1.2 C 3.88 g/m*3 -1.2 C 0 km/h
215 23-12-2010 18:49:02 -1.2 C 3.88 g/m*3 -1.2 C 0 km/h
216 23-12-2010 19:01:02 -1.2 C 3.88 g/m*3 -1.2 C 0 km/h
217 23-12-2010 19:13:02 -1.2 C 3.88 g/m*3 -1.2 C 0 km/h
218 23-12-2010 19:25:01 -1.3 C 3.85 g/m*3 -1.3 C 0 km/h
219 23-12-2010 19:37:02 -1.3 C 3.81 g/m*3 -1.3 C 0 km/h
220 23-12-2010 19:49:02 -1.3 C 3.81 g/m*3 -1.3 C 0 km/h
221 23-12-2010 20:01:02 -1.4 C 3.78 g/m*3 -1.4 C 0 km/h
222 23-12-2010 20:13:02 -1.3 C 3.85 g/m*3 -1.3 C 0 km/h
223 23-12-2010 20:25:02 -1.2 C 3.88 g/m*3 -1.2 C 0 km/h
224 23-12-2010 20:37:02 -1.2 C 3.83 g/m*3 -1.2 C 0 km/h
225 23-12-2010 20:49:02 -1.2 C 3.83 g/m*3 -1.2 C 0 km/h
Sensor: Nr:Datum:Temp:Abs-Feuchte:Windchill:Wind:
Aussen-T/F 226 23-12-2010 21:01:02 -1.2 C 3.83 g/m*3 -1.2 C 0 km/h
227 23-12-2010 21:13:02 -1.2 C 3.83 g/m*3 -1.2 C 0 km/h
228 23-12-2010 21:25:02 -1.1 C 3.86 g/m*3 -1.1 C 0 km/h
229 23-12-2010 21:37:01 -1 C 3.89 g/m*3 -1 C 0 km/h
230 23-12-2010 21:50:02 -1 C 3.89 g/m*3 -1 C 0 km/h
231 23-12-2010 22:02:02 -0.9 C 3.91 g/m*3 -0.9 C 0 km/h
232 23-12-2010 22:14:02 -1 C 3.89 g/m*3 -1 C 0 km/h
233 23-12-2010 22:26:02 -1 C 3.89 g/m*3 -1 C 0 km/h
234 23-12-2010 22:38:02 -0.9 C 3.96 g/m*3 -0.9 C 0 km/h
235 23-12-2010 22:50:02 -0.9 C 3.96 g/m*3 -0.9 C 0 km/h
236 23-12-2010 23:02:02 -0.9 C 3.96 g/m*3 -0.9 C 0 km/h
237 23-12-2010 23:14:02 -0.8 C 3.99 g/m*3 -0.8 C 0 km/h
238 23-12-2010 23:26:03 -0.7 C 4.02 g/m*3 -0.7 C 0 km/h
239 23-12-2010 23:38:03 -0.8 C 3.94 g/m*3 -0.8 C 0 km/h
240 23-12-2010 23:50:03 -0.8 C 3.99 g/m*3 -0.8 C 0 km/h
241 24-12-2010 00:02:03 -0.9 C 3.91 g/m*3 -0.9 C 0 km/h
242 24-12-2010 00:14:03 -0.9 C 3.91 g/m*3 -0.9 C 0 km/h
243 24-12-2010 00:26:03 -0.9 C 3.91 g/m*3 -0.9 C 0 km/h
244 24-12-2010 00:38:03 -0.9 C 3.91 g/m*3 -0.9 C 0 km/h
245 24-12-2010 00:50:03 -0.9 C 3.91 g/m*3 -0.9 C 0 km/h
246 24-12-2010 01:02:03 -0.9 C 3.91 g/m*3 -0.9 C 0 km/h
247 24-12-2010 01:14:03 -0.9 C 3.96 g/m*3 -0.9 C 0 km/h
248 24-12-2010 01:26:03 -0.7 C 4.02 g/m*3 -0.7 C 0 km/h
249 24-12-2010 01:38:03 -0.7 C 3.97 g/m*3 -0.7 C 0 km/h
250 24-12-2010 01:50:03 -0.5 C 4.03 g/m*3 -0.5 C 0 km/h
Sensor: Nr:Datum:Temp:Abs-Feuchte:Windchill:Wind:
Aussen-T/F 251 24-12-2010 02:02:03 -0.6 C 4 g/m*3 -0.6 C 0 km/h
252 24-12-2010 02:14:03 -0.6 C 4 g/m*3 -0.6 C 0 km/h
253 24-12-2010 02:26:03 -0.5 C 4.03 g/m*3 -0.5 C 0 km/h
254 24-12-2010 02:38:03 -0.4 C 4.05 g/m*3 -0.4 C 0 km/h
255 24-12-2010 02:50:03 -0.4 C 4.05 g/m*3 -0.4 C 0 km/h
256 24-12-2010 03:02:03 -0.4 C 4.05 g/m*3 -0.4 C 0 km/h
257 24-12-2010 03:14:03 -0.5 C 4.03 g/m*3 -0.5 C 0 km/h
258 24-12-2010 03:26:03 -0.5 C 4.03 g/m*3 -0.5 C 0 km/h
259 24-12-2010 03:38:04 -0.5 C 4.03 g/m*3 -0.5 C 0 km/h
260 24-12-2010 03:50:04 -0.5 C 4.03 g/m*3 -0.5 C 0 km/h
261 24-12-2010 04:02:04 -0.5 C 4.03 g/m*3 -0.5 C 0 km/h
262 24-12-2010 04:14:04 -0.5 C 4.03 g/m*3 -0.5 C 0 km/h
263 24-12-2010 04:26:04 -0.5 C 4.03 g/m*3 -0.5 C 0 km/h
264 24-12-2010 04:38:04 -0.5 C 4.03 g/m*3 -0.5 C 0 km/h
265 24-12-2010 04:50:04 -0.5 C 4.03 g/m*3 -0.5 C 0 km/h
266 24-12-2010 05:02:04 -0.5 C 3.98 g/m*3 -0.5 C 0 km/h
267 24-12-2010 05:14:04 -0.7 C 3.92 g/m*3 -0.7 C 0 km/h
268 24-12-2010 05:26:04 -0.7 C 3.92 g/m*3 -0.7 C 0 km/h
269 24-12-2010 05:38:04 -0.9 C 3.87 g/m*3 -0.9 C 0 km/h
270 24-12-2010 05:50:04 -0.9 C 3.87 g/m*3 -0.9 C 0 km/h
271 24-12-2010 06:02:04 -0.9 C 3.87 g/m*3 -0.9 C 0 km/h
272 24-12-2010 06:14:04 -1 C 3.8 g/m*3 -1 C 0 km/h
273 24-12-2010 06:26:04 -1 C 3.8 g/m*3 -1 C 0 km/h
274 24-12-2010 06:38:04 -0.9 C 3.78 g/m*3 -0.9 C 0 km/h
275 24-12-2010 06:50:04 -1 C 3.71 g/m*3 -1 C 0 km/h
Sensor: Nr:Datum:Temp:Abs-Feuchte:Windchill:Wind:
Aussen-T/F 276 24-12-2010 07:02:04 -1.1 C 3.68 g/m*3 -1.1 C 0 km/h
277 24-12-2010 07:14:04 -1.2 C 3.66 g/m*3 -1.2 C 0 km/h
278 24-12-2010 07:26:04 -1.2 C 3.61 g/m*3 -1.2 C 0 km/h
279 24-12-2010 07:38:04 -1.2 C 3.61 g/m*3 -1.2 C 0 km/h
280 24-12-2010 07:50:04 -1.3 C 3.63 g/m*3 -1.3 C 0 km/h
281 24-12-2010 08:02:05 -1.3 C 3.63 g/m*3 -1.3 C 0 km/h
282 24-12-2010 08:14:05 -1.4 C 3.65 g/m*3 -1.4 C 0 km/h
283 24-12-2010 08:26:05 -1.5 C 3.62 g/m*3 -1.5 C 0 km/h
284 24-12-2010 08:38:05 -1.6 C 3.64 g/m*3 -1.6 C 0 km/h
285 24-12-2010 08:50:05 -1.6 C 3.64 g/m*3 -1.6 C 0 km/h
286 24-12-2010 09:02:02 -1.7 C 3.66 g/m*3 -1.7 C 0 km/h
287 24-12-2010 09:14:02 -1.7 C 3.66 g/m*3 -1.7 C 0 km/h
288 24-12-2010 09:26:02 -1.7 C 3.66 g/m*3 -1.7 C 0 km/h
289 24-12-2010 09:38:02 -1.7 C 3.66 g/m*3 -1.7 C 0 km/h
290 24-12-2010 09:50:02 -1.7 C 3.66 g/m*3 -1.7 C 0 km/h
291 24-12-2010 10:02:02 -1.7 C 3.66 g/m*3 -1.7 C 0 km/h
292 24-12-2010 10:14:02 -1.6 C 3.68 g/m*3 -1.6 C 0 km/h
293 24-12-2010 10:26:02 -1.6 C 3.68 g/m*3 -1.6 C 0 km/h
294 24-12-2010 10:38:02 -1.5 C 3.67 g/m*3 -1.5 C 0 km/h
295 24-12-2010 10:50:01 -1.3 C 3.72 g/m*3 -1.3 C 0 km/h
296 24-12-2010 11:02:02 -1.5 C 3.67 g/m*3 -1.5 C 0 km/h
297 24-12-2010 11:14:02 -1.3 C 3.72 g/m*3 -1.3 C 0 km/h
298 24-12-2010 11:26:01 -1.3 C 3.67 g/m*3 -1.3 C 0 km/h
299 24-12-2010 11:38:02 -1.2 C 3.66 g/m*3 -1.2 C 0 km/h
300 24-12-2010 11:50:03 -1.3 C 3.63 g/m*3 -1.3 C 0 km/h
Sensor: Nr:Datum:Temp:Abs-Feuchte:Windchill:Wind:
Aussen-T/F 301 24-12-2010 12:02:02 -1.3 C 3.59 g/m*3 -1.3 C 0 km/h
302 24-12-2010 12:14:02 -1.3 C 3.59 g/m*3 -1.3 C 0 km/h
303 24-12-2010 12:26:02 -1.6 C 3.51 g/m*3 -1.6 C 0 km/h
304 24-12-2010 12:38:02 -1.4 C 3.56 g/m*3 -1.4 C 0 km/h
305 24-12-2010 12:50:02 -1.1 C 3.64 g/m*3 -1.1 C 0 km/h
306 24-12-2010 13:02:02 -1.3 C 3.54 g/m*3 -1.3 C 0 km/h
307 24-12-2010 13:14:02 -1.4 C 3.52 g/m*3 -1.4 C 0 km/h
308 24-12-2010 13:26:01 -1.4 C 3.52 g/m*3 -1.4 C 0 km/h
309 24-12-2010 13:38:02 -1.4 C 3.52 g/m*3 -1.4 C 0 km/h
310 24-12-2010 13:50:02 -1.4 C 3.52 g/m*3 -1.4 C 0 km/h
311 24-12-2010 14:02:02 -1.4 C 3.52 g/m*3 -1.4 C 0 km/h
312 24-12-2010 14:14:02 -1.4 C 3.52 g/m*3 -1.4 C 0 km/h
313 24-12-2010 14:26:02 -1.4 C 3.52 g/m*3 -1.4 C 0 km/h
314 24-12-2010 14:38:02 -1.4 C 3.52 g/m*3 -1.4 C 0 km/h
315 24-12-2010 14:50:02 -1.4 C 3.52 g/m*3 -1.4 C 0 km/h
316 24-12-2010 15:02:02 -1.4 C 3.52 g/m*3 -1.4 C 0 km/h
317 24-12-2010 15:14:02 -1.4 C 3.52 g/m*3 -1.4 C 0 km/h
318 24-12-2010 15:26:02 -2 C 3.46 g/m*3 -2 C 0 km/h
319 24-12-2010 15:38:02 -2.2 C 3.41 g/m*3 -2.2 C 0 km/h
320 24-12-2010 15:50:01 -2.2 C 3.41 g/m*3 -2.2 C 0 km/h
321 24-12-2010 16:02:02 -2.2 C 3.41 g/m*3 -2.2 C 0 km/h
322 24-12-2010 16:14:02 -2.4 C 3.36 g/m*3 -2.4 C 0 km/h
323 24-12-2010 16:26:01 -2.5 C 3.34 g/m*3 -2.5 C 0 km/h
324 24-12-2010 16:38:01 -2.5 C 3.34 g/m*3 -2.5 C 0 km/h
325 24-12-2010 16:50:01 -2.5 C 3.3 g/m*3 -2.5 C 0 km/h
Sensor: Nr:Datum:Temp:Abs-Feuchte:Windchill:Wind:
Aussen-T/F 326 24-12-2010 17:02:01 -2.5 C 3.26 g/m*3 -2.5 C 0 km/h
327 24-12-2010 17:14:01 -2.5 C 3.26 g/m*3 -2.5 C 0 km/h
328 24-12-2010 17:26:02 -2.5 C 3.21 g/m*3 -2.5 C 0 km/h
329 24-12-2010 17:38:02 -2.6 C 3.19 g/m*3 -2.6 C 0 km/h
330 24-12-2010 17:50:02 -2.7 C 3.17 g/m*3 -2.7 C 0 km/h
331 24-12-2010 18:02:02 -2.7 C 3.25 g/m*3 -2.7 C 0 km/h
332 24-12-2010 18:14:02 -2.8 C 3.23 g/m*3 -2.8 C 0 km/h
333 24-12-2010 18:26:02 -2.8 C 3.23 g/m*3 -2.8 C 0 km/h
334 24-12-2010 18:38:02 -2.9 C 3.2 g/m*3 -2.9 C 0 km/h
335 24-12-2010 18:50:02 -2.8 C 3.23 g/m*3 -2.8 C 0 km/h
336 24-12-2010 19:02:02 -2.9 C 3.16 g/m*3 -2.9 C 0 km/h
337 24-12-2010 19:14:03 -2.9 C 3.16 g/m*3 -2.9 C 0 km/h
338 24-12-2010 19:26:02 -2.9 C 3.13 g/m*3 -2.9 C 0 km/h
339 24-12-2010 19:38:02 -3 C 3.1 g/m*3 -3 C 0 km/h
340 24-12-2010 19:50:01 -3 C 3.1 g/m*3 -3 C 0 km/h
341 24-12-2010 20:02:01 -3 C 3.1 g/m*3 -3 C 0 km/h
342 24-12-2010 20:14:01 -3 C 3.14 g/m*3 -3 C 0 km/h
343 24-12-2010 20:26:02 -3 C 3.1 g/m*3 -3 C 0 km/h
344 24-12-2010 20:38:01 -3 C 3.1 g/m*3 -3 C 0 km/h
345 24-12-2010 20:50:01 -3.1 C 3.08 g/m*3 -3.1 C 0 km/h
346 24-12-2010 21:02:01 -3.1 C 3.08 g/m*3 -3.1 C 0 km/h
347 24-12-2010 21:14:01 -3.2 C 3.06 g/m*3 -3.2 C 0 km/h
348 24-12-2010 21:19:02 -3.2 C 3.06 g/m*3 -3.2 C 0 km/h
349 24-12-2010 21:31:01 -3.3 C 3.04 g/m*3 -3.3 C 0 km/h
350 24-12-2010 21:43:01 -3.3 C 3.04 g/m*3 -3.3 C 0 km/h
Sensor: Nr:Datum:Temp:Abs-Feuchte:Windchill:Wind:
Aussen-T/F 351 24-12-2010 21:55:02 -3.3 C 3.08 g/m*3 -3.3 C 0 km/h
352 24-12-2010 22:07:01 -3.4 C 3.05 g/m*3 -3.4 C 0 km/h
353 24-12-2010 22:19:01 -3.5 C 3.03 g/m*3 -3.5 C 0 km/h
354 24-12-2010 22:31:02 -3.6 C 3.01 g/m*3 -3.6 C 0 km/h
355 24-12-2010 22:43:02 -3.6 C 3.01 g/m*3 -3.6 C 0 km/h
356 24-12-2010 22:55:02 -3.7 C 2.99 g/m*3 -3.7 C 0 km/h
357 24-12-2010 23:07:02 -3.7 C 2.99 g/m*3 -3.7 C 0 km/h
358 24-12-2010 23:19:02 -3.7 C 2.99 g/m*3 -3.7 C 0 km/h
359 24-12-2010 23:31:02 -3.7 C 2.99 g/m*3 -3.7 C 0 km/h
360 24-12-2010 23:43:02 -3.8 C 2.97 g/m*3 -3.8 C 0 km/h
361 24-12-2010 23:56:02 -3.8 C 2.97 g/m*3 -3.8 C 0 km/h
362 25-12-2010 00:08:02 -3.8 C 2.97 g/m*3 -3.8 C 0 km/h
363 25-12-2010 00:20:02 -3.8 C 2.97 g/m*3 -3.8 C 0 km/h
364 25-12-2010 00:32:02 -3.8 C 2.97 g/m*3 -3.8 C 0 km/h
365 25-12-2010 00:44:03 -3.8 C 2.93 g/m*3 -3.8 C 0 km/h
366 25-12-2010 00:56:03 -3.9 C 2.87 g/m*3 -3.9 C 0 km/h
367 25-12-2010 01:08:03 -3.9 C 2.87 g/m*3 -3.9 C 0 km/h
368 25-12-2010 01:20:03 -3.9 C 2.87 g/m*3 -3.9 C 0 km/h
369 25-12-2010 01:32:03 -3.9 C 2.87 g/m*3 -3.9 C 0 km/h
370 25-12-2010 01:44:03 -3.9 C 2.87 g/m*3 -3.9 C 0 km/h
371 25-12-2010 01:56:03 -4 C 2.89 g/m*3 -4 C 0 km/h
372 25-12-2010 02:08:03 -4.1 C 2.87 g/m*3 -4.1 C 0 km/h
373 25-12-2010 02:20:03 -4.1 C 2.91 g/m*3 -4.1 C 0 km/h
374 25-12-2010 02:32:03 -4.1 C 2.87 g/m*3 -4.1 C 0 km/h
375 25-12-2010 02:44:03 -4.1 C 2.87 g/m*3 -4.1 C 0 km/h
Sensor: Nr:Datum:Temp:Abs-Feuchte:Windchill:Wind:
Aussen-T/F 376 25-12-2010 02:56:03 -4 C 2.85 g/m*3 -4 C 0 km/h
377 25-12-2010 03:08:03 -4.1 C 2.83 g/m*3 -4.1 C 0 km/h
378 25-12-2010 03:20:03 -4.1 C 2.83 g/m*3 -4.1 C 0 km/h
379 25-12-2010 03:32:03 -4.2 C 2.81 g/m*3 -4.2 C 0 km/h
380 25-12-2010 03:44:03 -4.2 C 2.81 g/m*3 -4.2 C 0 km/h
381 25-12-2010 03:56:03 -4.2 C 2.78 g/m*3 -4.2 C 0 km/h
382 25-12-2010 04:08:03 -4.2 C 2.74 g/m*3 -4.2 C 0 km/h
383 25-12-2010 04:20:03 -4.2 C 2.7 g/m*3 -4.2 C 0 km/h
384 25-12-2010 04:32:03 -4.2 C 2.67 g/m*3 -4.2 C 0 km/h
385 25-12-2010 04:44:03 -4.3 C 2.65 g/m*3 -4.3 C 0 km/h
386 25-12-2010 04:56:04 -4.4 C 2.63 g/m*3 -4.4 C 0 km/h
387 25-12-2010 05:08:04 -4.4 C 2.63 g/m*3 -4.4 C 0 km/h
388 25-12-2010 05:20:04 -4.4 C 2.6 g/m*3 -4.4 C 0 km/h
389 25-12-2010 05:32:04 -4.5 C 2.58 g/m*3 -4.5 C 0 km/h
390 25-12-2010 05:44:04 -4.5 C 2.58 g/m*3 -4.5 C 0 km/h
391 25-12-2010 05:56:04 -4.5 C 2.54 g/m*3 -4.5 C 0 km/h
392 25-12-2010 06:08:04 -4.6 C 2.52 g/m*3 -4.6 C 0 km/h
393 25-12-2010 06:20:04 -4.6 C 2.52 g/m*3 -4.6 C 0 km/h
394 25-12-2010 06:32:04 -4.6 C 2.52 g/m*3 -4.6 C 0 km/h
395 25-12-2010 06:44:04 -4.6 C 2.52 g/m*3 -4.6 C 0 km/h
396 25-12-2010 06:56:04 -4.7 C 2.47 g/m*3 -4.7 C 0 km/h
397 25-12-2010 07:08:04 -4.7 C 2.44 g/m*3 -4.7 C 0 km/h
398 25-12-2010 07:20:04 -4.7 C 2.44 g/m*3 -4.7 C 0 km/h
399 25-12-2010 07:32:04 -4.7 C 2.44 g/m*3 -4.7 C 0 km/h
400 25-12-2010 07:44:04 -4.7 C 2.47 g/m*3 -4.7 C 0 km/h
Sensor: Nr:Datum:Temp:Abs-Feuchte:Windchill:Wind:
Aussen-T/F 401 25-12-2010 07:56:04 -4.8 C 2.45 g/m*3 -4.8 C 0 km/h
402 25-12-2010 08:08:04 -4.7 C 2.47 g/m*3 -4.7 C 0 km/h
403 25-12-2010 08:20:04 -4.7 C 2.47 g/m*3 -4.7 C 0 km/h
404 25-12-2010 08:32:04 -4.8 C 2.49 g/m*3 -4.8 C 0 km/h
405 25-12-2010 08:44:04 -4.9 C 2.47 g/m*3 -4.9 C 0 km/h
406 25-12-2010 08:56:05 -4.9 C 2.47 g/m*3 -4.9 C 0 km/h
407 25-12-2010 09:08:05 -4.9 C 2.43 g/m*3 -4.9 C 0 km/h
408 25-12-2010 09:20:05 -4.8 C 2.45 g/m*3 -4.8 C 0 km/h
409 25-12-2010 09:32:02 -4.9 C 2.43 g/m*3 -4.9 C 0 km/h
410 25-12-2010 09:44:02 -4.8 C 2.42 g/m*3 -4.8 C 0 km/h
411 25-12-2010 09:56:02 -4.7 C 2.44 g/m*3 -4.7 C 0 km/h
412 25-12-2010 10:08:02 -4.7 C 2.4 g/m*3 -4.7 C 0 km/h
413 25-12-2010 10:20:02 -4.7 C 2.37 g/m*3 -4.7 C 0 km/h
414 25-12-2010 10:32:02 -4.7 C 2.33 g/m*3 -4.7 C 0 km/h
415 25-12-2010 10:44:02 -4.6 C 2.31 g/m*3 -4.6 C 0 km/h
416 25-12-2010 10:56:02 -4.2 C 2.38 g/m*3 -4.2 C 0 km/h
417 25-12-2010 11:08:02 -4.5 C 2.29 g/m*3 -4.5 C 0 km/h
418 25-12-2010 11:20:03 -4.1 C 2.29 g/m*3 -4.1 C 0 km/h
419 25-12-2010 11:32:02 -4.3 C 2.18 g/m*3 -4.3 C 0 km/h
420 25-12-2010 11:44:02 -4.9 C 2.06 g/m*3 -4.9 C 0 km/h
421 25-12-2010 11:56:03 -4.7 C 2.09 g/m*3 -4.7 C 0 km/h
422 25-12-2010 12:08:02 -4.9 C 2.06 g/m*3 -4.9 C 0 km/h
423 25-12-2010 12:20:02 -5.2 C 2.01 g/m*3 -5.2 C 0 km/h
424 25-12-2010 12:32:02 -4.9 C 2.09 g/m*3 -4.9 C 0 km/h
425 25-12-2010 12:44:02 -4.9 C 2.09 g/m*3 -4.9 C 0 km/h
Sensor: Nr:Datum:Temp:Abs-Feuchte:Windchill:Wind:
Aussen-T/F 426 25-12-2010 12:56:02 -5 C 2.08 g/m*3 -5 C 0 km/h
427 25-12-2010 13:08:02 -4.6 C 2.17 g/m*3 -4.6 C 0 km/h
428 25-12-2010 13:20:02 -4.5 C 2.19 g/m*3 -4.5 C 0 km/h
429 25-12-2010 13:32:02 -4.7 C 2.19 g/m*3 -4.7 C 0 km/h
430 25-12-2010 13:44:02 -5.1 C 2.13 g/m*3 -5.1 C 0 km/h
431 25-12-2010 13:56:02 -4.7 C 2.23 g/m*3 -4.7 C 0 km/h
432 25-12-2010 14:08:01 -5 C 2.11 g/m*3 -5 C 0 km/h
433 25-12-2010 14:20:02 -4.9 C 2.13 g/m*3 -4.9 C 0 km/h
434 25-12-2010 14:32:02 -4.9 C 2.09 g/m*3 -4.9 C 0 km/h
435 25-12-2010 14:44:02 -4.8 C 2.11 g/m*3 -4.8 C 0 km/h
436 25-12-2010 14:56:02 -5 C 2.08 g/m*3 -5 C 0 km/h
437 25-12-2010 15:08:02 -5 C 2.11 g/m*3 -5 C 0 km/h
438 25-12-2010 15:20:02 -5.4 C 2.05 g/m*3 -5.4 C 0 km/h
439 25-12-2010 15:32:02 -5.6 C 2.05 g/m*3 -5.6 C 0 km/h
440 25-12-2010 15:44:02 -5.7 C 2.1 g/m*3 -5.7 C 0 km/h
441 25-12-2010 15:56:01 -6 C 2.12 g/m*3 -6 C 0 km/h
442 25-12-2010 16:08:02 -6.4 C 2.12 g/m*3 -6.4 C 0 km/h
443 25-12-2010 16:20:01 -6.7 C 2.11 g/m*3 -6.7 C 0 km/h
444 25-12-2010 16:32:01 -6.8 C 2.12 g/m*3 -6.8 C 0 km/h
445 25-12-2010 16:44:01 -7.3 C 2.07 g/m*3 -7.3 C 0 km/h
446 25-12-2010 16:56:01 -6.9 C 2.19 g/m*3 -6.9 C 0 km/h
447 25-12-2010 17:08:01 -7.4 C 2.12 g/m*3 -7.4 C 0 km/h
448 25-12-2010 17:20:02 -7.6 C 2.11 g/m*3 -7.6 C 0 km/h
449 25-12-2010 17:32:01 -7.8 C 2.08 g/m*3 -7.8 C 0 km/h
450 25-12-2010 17:44:01 -7.3 C 2.19 g/m*3 -7.3 C 0 km/h
Sensor: Nr:Datum:Temp:Abs-Feuchte:Windchill:Wind:
Aussen-T/F 451 25-12-2010 17:56:02 -7.5 C 2.13 g/m*3 -7.5 C 0 km/h
452 25-12-2010 18:08:01 -7.6 C 2.14 g/m*3 -7.6 C 0 km/h
453 25-12-2010 18:20:02 -7.5 C 2.16 g/m*3 -7.5 C 0 km/h
454 25-12-2010 18:32:01 -7.4 C 2.2 g/m*3 -7.4 C 0 km/h
455 25-12-2010 18:44:01 -7.4 C 2.17 g/m*3 -7.4 C 0 km/h
456 25-12-2010 18:56:02 -7.4 C 2.17 g/m*3 -7.4 C 0 km/h
457 25-12-2010 19:08:02 -7.4 C 2.17 g/m*3 -7.4 C 0 km/h
458 25-12-2010 19:20:02 -7.4 C 2.17 g/m*3 -7.4 C 0 km/h
459 25-12-2010 19:32:03 -7.4 C 2.17 g/m*3 -7.4 C 0 km/h
460 25-12-2010 19:44:03 -7.4 C 2.17 g/m*3 -7.4 C 0 km/h
461 25-12-2010 19:56:02 -7.4 C 2.17 g/m*3 -7.4 C 0 km/h
462 25-12-2010 20:08:01 -7.4 C 2.17 g/m*3 -7.4 C 0 km/h
463 25-12-2010 20:20:02 -8.8 C 2.04 g/m*3 -8.8 C 0 km/h
464 25-12-2010 20:32:02 -9.2 C 1.98 g/m*3 -9.2 C 0 km/h
465 25-12-2010 20:44:02 -8.6 C 2.09 g/m*3 -8.6 C 0 km/h
466 25-12-2010 20:56:02 -7.7 C 2.26 g/m*3 -7.7 C 0 km/h
467 25-12-2010 21:08:02 -7.6 C 2.31 g/m*3 -7.6 C 0 km/h
468 25-12-2010 21:20:02 -7.7 C 2.26 g/m*3 -7.7 C 0 km/h
469 25-12-2010 21:32:02 -7.6 C 2.28 g/m*3 -7.6 C 0 km/h
470 25-12-2010 21:44:02 -7.2 C 2.35 g/m*3 -7.2 C 0 km/h
471 25-12-2010 21:56:01 -6.9 C 2.37 g/m*3 -6.9 C 0 km/h
472 25-12-2010 22:08:02 -6.8 C 2.36 g/m*3 -6.8 C 0 km/h
473 25-12-2010 22:20:01 -6.9 C 2.31 g/m*3 -6.9 C 0 km/h
474 25-12-2010 22:32:01 -6.8 C 2.33 g/m*3 -6.8 C 0 km/h
475 25-12-2010 22:44:01 -6.8 C 2.27 g/m*3 -6.8 C 0 km/h
Sensor: Nr:Datum:Temp:Abs-Feuchte:Windchill:Wind:
Aussen-T/F 476 25-12-2010 22:56:01 -6.7 C 2.26 g/m*3 -6.7 C 0 km/h
477 25-12-2010 23:08:02 -6.8 C 2.18 g/m*3 -6.8 C 0 km/h
478 25-12-2010 23:20:02 -6.8 C 2.18 g/m*3 -6.8 C 0 km/h
479 25-12-2010 23:32:01 -6.9 C 2.16 g/m*3 -6.9 C 0 km/h
480 25-12-2010 23:44:01 -6.8 C 2.18 g/m*3 -6.8 C 0 km/h
481 25-12-2010 23:56:02 -6.8 C 2.18 g/m*3 -6.8 C 0 km/h
482 26-12-2010 00:08:01 -6.8 C 2.18 g/m*3 -6.8 C 0 km/h
483 26-12-2010 00:20:01 -6.9 C 2.16 g/m*3 -6.9 C 0 km/h
484 26-12-2010 00:32:01 -7 C 2.12 g/m*3 -7 C 0 km/h
485 26-12-2010 00:44:01 -7.3 C 2.07 g/m*3 -7.3 C 0 km/h
486 26-12-2010 00:56:01 -7.4 C 2.09 g/m*3 -7.4 C 0 km/h
487 26-12-2010 01:08:02 -7.8 C 2 g/m*3 -7.8 C 0 km/h
488 26-12-2010 01:20:02 -7.9 C 2.01 g/m*3 -7.9 C 0 km/h
489 26-12-2010 01:32:01 -8 C 2 g/m*3 -8 C 0 km/h
490 26-12-2010 01:44:01 -8.2 C 1.97 g/m*3 -8.2 C 0 km/h
491 26-12-2010 01:56:01 -8.1 C 1.98 g/m*3 -8.1 C 0 km/h
492 26-12-2010 02:08:01 -8.6 C 1.88 g/m*3 -8.6 C 0 km/h
493 26-12-2010 02:20:02 -8.7 C 1.9 g/m*3 -8.7 C 0 km/h
494 26-12-2010 02:32:01 -8.8 C 1.88 g/m*3 -8.8 C 0 km/h
495 26-12-2010 02:44:01 -8.9 C 1.87 g/m*3 -8.9 C 0 km/h
496 26-12-2010 02:57:05 -8.9 C 1.87 g/m*3 -8.9 C 0 km/h
497 26-12-2010 03:09:05 -9 C 1.83 g/m*3 -9 C 0 km/h
498 26-12-2010 03:21:04 -9.1 C 1.81 g/m*3 -9.1 C 0 km/h
499 26-12-2010 03:33:02 -9.1 C 1.81 g/m*3 -9.1 C 0 km/h
500 26-12-2010 03:45:02 -9 C 1.83 g/m*3 -9 C 0 km/h
Sensor: Nr:Datum:Temp:Abs-Feuchte:Windchill:Wind:
Aussen-T/F 501 26-12-2010 03:57:02 -9 C 1.83 g/m*3 -9 C 0 km/h
502 26-12-2010 04:09:02 -9 C 1.83 g/m*3 -9 C 0 km/h
503 26-12-2010 04:21:02 -9.2 C 1.83 g/m*3 -9.2 C 0 km/h
504 26-12-2010 04:33:02 -9.1 C 1.86 g/m*3 -9.1 C 0 km/h
505 26-12-2010 04:45:02 -8.9 C 1.89 g/m*3 -8.9 C 0 km/h
506 26-12-2010 04:57:02 -9 C 1.85 g/m*3 -9 C 0 km/h
507 26-12-2010 05:09:02 -8.8 C 1.91 g/m*3 -8.8 C 0 km/h
508 26-12-2010 05:21:02 -8.6 C 1.91 g/m*3 -8.6 C 0 km/h
509 26-12-2010 05:33:02 -8.6 C 1.91 g/m*3 -8.6 C 0 km/h
510 26-12-2010 05:45:02 -8.2 C 1.97 g/m*3 -8.2 C 0 km/h
511 26-12-2010 05:57:02 -8 C 2.02 g/m*3 -8 C 0 km/h
512 26-12-2010 06:09:02 -7.6 C 2.06 g/m*3 -7.6 C 0 km/h
513 26-12-2010 06:21:02 -7.4 C 2.09 g/m*3 -7.4 C 0 km/h
514 26-12-2010 06:33:01 -7.3 C 2.1 g/m*3 -7.3 C 0 km/h
515 26-12-2010 06:45:02 -7 C 2.15 g/m*3 -7 C 0 km/h
516 26-12-2010 06:57:02 -6.9 C 2.16 g/m*3 -6.9 C 0 km/h
517 26-12-2010 07:09:01 -6.7 C 2.2 g/m*3 -6.7 C 0 km/h
518 26-12-2010 07:21:01 -6.4 C 2.25 g/m*3 -6.4 C 0 km/h
519 26-12-2010 07:33:02 -6.2 C 2.28 g/m*3 -6.2 C 0 km/h
520 26-12-2010 07:45:02 -6.2 C 2.25 g/m*3 -6.2 C 0 km/h
521 26-12-2010 07:57:02 -6.2 C 2.25 g/m*3 -6.2 C 0 km/h
522 26-12-2010 08:09:02 -6.1 C 2.3 g/m*3 -6.1 C 0 km/h
523 26-12-2010 08:21:02 -5.9 C 2.36 g/m*3 -5.9 C 0 km/h
524 26-12-2010 08:33:02 -5.8 C 2.35 g/m*3 -5.8 C 0 km/h
525 26-12-2010 08:45:02 -5.8 C 2.38 g/m*3 -5.8 C 0 km/h
Sensor: Nr:Datum:Temp:Abs-Feuchte:Windchill:Wind:
Aussen-T/F 526 26-12-2010 08:57:02 -5.6 C 2.45 g/m*3 -5.6 C 0 km/h
527 26-12-2010 09:09:02 -5.4 C 2.51 g/m*3 -5.4 C 0 km/h
528 26-12-2010 09:21:02 -5.2 C 2.55 g/m*3 -5.2 C 0 km/h
529 26-12-2010 09:33:02 -4.7 C 2.64 g/m*3 -4.7 C 0 km/h
530 26-12-2010 09:45:02 -4.6 C 2.63 g/m*3 -4.6 C 0 km/h
531 26-12-2010 09:57:02 -4.5 C 2.65 g/m*3 -4.5 C 0 km/h
532 26-12-2010 10:09:02 -4.5 C 2.65 g/m*3 -4.5 C 0 km/h
533 26-12-2010 10:21:02 -4.4 C 2.67 g/m*3 -4.4 C 0 km/h
534 26-12-2010 10:33:02 -4.4 C 2.67 g/m*3 -4.4 C 0 km/h
535 26-12-2010 10:45:02 -4.1 C 2.69 g/m*3 -4.1 C 0 km/h
536 26-12-2010 10:57:02 -3.8 C 2.71 g/m*3 -3.8 C 0 km/h
537 26-12-2010 11:09:03 -3.6 C 2.71 g/m*3 -3.6 C 0 km/h
538 26-12-2010 11:21:02 -3.5 C 2.69 g/m*3 -3.5 C 0 km/h
539 26-12-2010 11:33:02 -3.7 C 2.65 g/m*3 -3.7 C 0 km/h
540 26-12-2010 11:45:02 -3.5 C 2.69 g/m*3 -3.5 C 0 km/h
541 26-12-2010 11:57:02 -3.3 C 2.69 g/m*3 -3.3 C 0 km/h
542 26-12-2010 12:09:02 -3.4 C 2.71 g/m*3 -3.4 C 0 km/h
543 26-12-2010 12:21:02 -3.3 C 2.73 g/m*3 -3.3 C 0 km/h
544 26-12-2010 12:33:01 -3 C 2.83 g/m*3 -3 C 0 km/h
545 26-12-2010 12:45:02 -3.1 C 2.81 g/m*3 -3.1 C 0 km/h
546 26-12-2010 12:57:03 -2.9 C 2.85 g/m*3 -2.9 C 0 km/h
547 26-12-2010 13:09:01 -2.8 C 2.87 g/m*3 -2.8 C 0 km/h
548 26-12-2010 13:21:01 -2.6 C 2.87 g/m*3 -2.6 C 0 km/h
549 26-12-2010 13:33:02 -2.7 C 2.81 g/m*3 -2.7 C 0 km/h
550 26-12-2010 13:45:02 -2.8 C 2.83 g/m*3 -2.8 C 0 km/h
Sensor: Nr:Datum:Temp:Abs-Feuchte:Windchill:Wind:
Aussen-T/F 551 26-12-2010 13:57:02 -2.7 C 2.89 g/m*3 -2.7 C 0 km/h
552 26-12-2010 14:09:02 -2.8 C 2.91 g/m*3 -2.8 C 0 km/h
553 26-12-2010 14:21:01 -2.7 C 2.97 g/m*3 -2.7 C 0 km/h
554 26-12-2010 14:33:02 -2.4 C 3.07 g/m*3 -2.4 C 0 km/h
555 26-12-2010 14:45:02 -2.7 C 3.01 g/m*3 -2.7 C 0 km/h
556 26-12-2010 14:57:02 -2.7 C 3.05 g/m*3 -2.7 C 0 km/h
557 26-12-2010 15:09:02 -2.6 C 3.11 g/m*3 -2.6 C 0 km/h
558 26-12-2010 15:21:02 -2.6 C 3.15 g/m*3 -2.6 C 0 km/h
559 26-12-2010 15:33:02 -2.8 C 3.11 g/m*3 -2.8 C 0 km/h
560 26-12-2010 15:45:02 -2.8 C 3.15 g/m*3 -2.8 C 0 km/h
561 26-12-2010 15:57:02 -2.8 C 3.15 g/m*3 -2.8 C 0 km/h
562 26-12-2010 16:09:02 -2.8 C 3.15 g/m*3 -2.8 C 0 km/h
563 26-12-2010 16:21:02 -2.8 C 3.15 g/m*3 -2.8 C 0 km/h
564 26-12-2010 16:33:02 -2.9 C 3.16 g/m*3 -2.9 C 0 km/h
565 26-12-2010 16:45:02 -2.9 C 3.16 g/m*3 -2.9 C 0 km/h
566 26-12-2010 16:57:02 -2.9 C 3.16 g/m*3 -2.9 C 0 km/h
567 26-12-2010 17:09:02 -2.8 C 3.19 g/m*3 -2.8 C 0 km/h
568 26-12-2010 17:21:02 -2.7 C 3.17 g/m*3 -2.7 C 0 km/h
569 26-12-2010 17:33:02 -2.8 C 3.15 g/m*3 -2.8 C 0 km/h
570 26-12-2010 17:45:02 -2.9 C 3.16 g/m*3 -2.9 C 0 km/h
571 26-12-2010 17:57:02 -2.9 C 3.16 g/m*3 -2.9 C 0 km/h
572 26-12-2010 18:09:01 -3.2 C 3.1 g/m*3 -3.2 C 0 km/h
573 26-12-2010 18:21:02 -3.1 C 3.16 g/m*3 -3.1 C 0 km/h
574 26-12-2010 18:33:01 -2.8 C 3.23 g/m*3 -2.8 C 0 km/h
575 26-12-2010 18:45:02 -2.7 C 3.21 g/m*3 -2.7 C 0 km/h
Sensor: Nr:Datum:Temp:Abs-Feuchte:Windchill:Wind:
Aussen-T/F 576 26-12-2010 18:57:03 -2.7 C 3.17 g/m*3 -2.7 C 0 km/h
577 26-12-2010 19:09:01 -2.8 C 3.15 g/m*3 -2.8 C 0 km/h
578 26-12-2010 19:21:01 -2.7 C 3.17 g/m*3 -2.7 C 0 km/h
579 26-12-2010 19:33:02 -2.7 C 3.17 g/m*3 -2.7 C 0 km/h
580 26-12-2010 19:45:02 -2.7 C 3.21 g/m*3 -2.7 C 0 km/h
581 26-12-2010 19:57:02 -2.7 C 3.21 g/m*3 -2.7 C 0 km/h
582 26-12-2010 20:09:02 -3 C 3.14 g/m*3 -3 C 0 km/h
583 26-12-2010 20:21:02 -3.5 C 3.03 g/m*3 -3.5 C 0 km/h
584 26-12-2010 20:33:02 -2.9 C 3.24 g/m*3 -2.9 C 0 km/h
585 26-12-2010 20:45:02 -2.8 C 3.23 g/m*3 -2.8 C 0 km/h
586 26-12-2010 20:57:02 -3 C 3.14 g/m*3 -3 C 0 km/h
587 26-12-2010 21:09:02 -3.5 C 3.03 g/m*3 -3.5 C 0 km/h
588 26-12-2010 21:21:02 -3 C 3.18 g/m*3 -3 C 0 km/h
589 26-12-2010 21:33:02 -3 C 3.14 g/m*3 -3 C 0 km/h
590 26-12-2010 21:45:02 -3.5 C 3.03 g/m*3 -3.5 C 0 km/h
591 26-12-2010 21:57:02 -3.5 C 3.03 g/m*3 -3.5 C 0 km/h
592 26-12-2010 22:09:02 -3.2 C 3.14 g/m*3 -3.2 C 0 km/h
593 26-12-2010 22:22:04 -3 C 3.14 g/m*3 -3 C 0 km/h
594 26-12-2010 22:34:04 -3 C 3.1 g/m*3 -3 C 0 km/h
595 26-12-2010 22:46:04 -2.9 C 3.13 g/m*3 -2.9 C 0 km/h
596 26-12-2010 22:58:04 -3.1 C 3.12 g/m*3 -3.1 C 0 km/h
597 26-12-2010 23:10:04 -3.1 C 3.12 g/m*3 -3.1 C 0 km/h
598 26-12-2010 23:22:04 -2.8 C 3.19 g/m*3 -2.8 C 0 km/h
599 26-12-2010 23:34:04 -2.6 C 3.19 g/m*3 -2.6 C 0 km/h
600 26-12-2010 23:46:04 -2.5 C 3.21 g/m*3 -2.5 C 0 km/h
Sensor: Nr:Datum:Temp:Abs-Feuchte:Windchill:Wind:
Aussen-T/F 601 26-12-2010 23:58:04 -2.6 C 3.19 g/m*3 -2.6 C 0 km/h

Legende:
   Min
   Max


Maximal/Minimal-Werte vom 22.12.2010 - 26.12.2010

Sensor Min Max Avg
Temp
(Aussen-T/F)
-9.2 °C
25-12-2010  20:32:02
2.9 °C
22-12-2010  12:24:01
-2.31 °C
Abs-Feuchte
(Aussen-T/F)
1.81 g/m*3
26-12-2010  03:21:04
5.13 g/m*3
22-12-2010  11:36:01
3.49 g/m*3
Windchill
(Aussen-T/F)
-9.2 C
25-12-2010  20:32:02
2.9 C
22-12-2010  12:24:01
-2.31 C

Die Daten stammen von einer Davis Vantage Pro 2 Wetter-Station und werden unter Linux mit der Software wview2wettercgi und aufbereitet. Alle Angaben erfolgen ohne Gewähr für ihre Vollständigkeit oder Richtigkeit.
Kontakt: Rainer Krienke krienke@uni-koblenz.de . Meine Webseiten an der Uni Koblenz oder privat.
Version: $Revision: 0.78 $